Time;durP1;ratioP1;P1;durP2;ratioP2;P2;SDS_P1;SDS_P2;PMS_P1;PMS_P2;Temp;Humidity;BMP_temperature;BMP_pressure;BME280_temperature;BME280_humidity;BME280_pressure;Samples;Min_cycle;Max_cycle;Signal;HPM_P1;HPM_P2
2022/04/27 00:00:18;;;;;;;4.22;2.92;;;7.90;98.30;;;;;;5085314;28;20440;-42
2022/04/27 00:02:44;;;;;;;5.85;3.03;;;7.90;98.30;;;;;;5095037;28;20450;-41
2022/04/27 00:05:10;;;;;;;3.42;3.00;;;7.90;98.30;;;;;;5088646;28;20023;-39
2022/04/27 00:07:35;;;;;;;6.13;3.00;;;7.90;98.40;;;;;;5092489;28;20050;-41
2022/04/27 00:10:01;;;;;;;5.55;2.85;;;7.90;98.40;;;;;;5091601;28;20031;-40
2022/04/27 00:12:27;;;;;;;2.92;2.53;;;7.90;98.40;;;;;;5088573;28;20259;-42
2022/04/27 00:14:52;;;;;;;5.32;3.33;;;7.90;98.40;;;;;;5094574;28;20032;-41
2022/04/27 00:17:18;;;;;;;7.55;3.38;;;7.90;98.40;;;;;;5086910;28;20027;-40
2022/04/27 00:19:44;;;;;;;4.80;3.38;;;7.90;98.40;;;;;;5095956;28;20028;-41
2022/04/27 00:22:11;;;;;;;3.90;3.10;;;7.90;98.50;;;;;;5087840;28;20039;-40
2022/04/27 00:24:37;;;;;;;4.18;2.85;;;7.80;98.50;;;;;;5096679;28;20103;-41
2022/04/27 00:27:03;;;;;;;6.45;3.30;;;7.80;98.50;;;;;;5085747;28;20192;-41
2022/04/27 00:29:29;;;;;;;5.13;3.60;;;7.80;98.50;;;;;;5098096;28;20032;-41
2022/04/27 00:31:54;;;;;;;4.68;2.90;;;7.80;98.80;;;;;;5085859;28;20384;-42
2022/04/27 00:34:23;;;;;;;4.15;3.05;;;7.70;98.60;;;;;;5097589;28;20040;-42
2022/04/27 00:36:52;;;;;;;2.92;2.40;;;7.70;98.60;;;;;;5085969;28;20425;-40
2022/04/27 00:39:18;;;;;;;4.07;2.70;;;7.70;98.60;;;;;;5097615;28;20027;-41
2022/04/27 00:42:02;;;;;;;5.95;2.90;;;7.70;98.60;;;;;;5065111;28;20029;-41
2022/04/27 00:44:36;;;;;;;3.45;2.83;;;7.60;98.60;;;;;;5094468;28;20032;-40
2022/04/27 00:47:02;;;;;;;3.42;2.42;;;7.70;98.70;;;;;;5065612;28;20064;-42
2022/04/27 00:49:28;;;;;;;3.15;2.22;;;7.60;98.70;;;;;;5090553;28;20050;-38
2022/04/27 00:51:55;;;;;;;4.28;2.58;;;7.60;98.70;;;;;;5087012;28;20720;-39
2022/04/27 00:54:22;;;;;;;3.85;2.30;;;7.60;98.70;;;;;;5093143;28;20023;-41
2022/04/27 00:56:51;;;;;;;5.55;2.83;;;7.60;98.80;;;;;;5088638;28;20093;-41
2022/04/27 00:59:17;;;;;;;5.32;2.67;;;7.60;98.80;;;;;;5092314;28;20027;-40
2022/04/27 01:01:43;;;;;;;6.22;3.20;;;7.60;98.80;;;;;;5090518;28;20094;-40
2022/04/27 01:04:09;;;;;;;5.70;3.35;;;7.50;98.90;;;;;;5089186;28;20035;-41
2022/04/27 01:06:36;;;;;;;4.60;3.03;;;7.50;99.00;;;;;;5093289;28;20121;-42
2022/04/27 01:09:02;;;;;;;4.43;2.92;;;7.50;99.10;;;;;;5086009;28;20831;-41
2022/04/27 01:11:29;;;;;;;3.72;2.83;;;7.40;99.10;;;;;;5095344;28;20082;-42
2022/04/27 01:13:55;;;;;;;6.10;2.90;;;7.40;99.20;;;;;;5086978;28;20028;-40
2022/04/27 01:16:21;;;;;;;4.50;2.97;;;7.30;99.30;;;;;;5095573;28;20902;-41
2022/04/27 01:18:46;;;;;;;8.68;3.85;;;7.30;99.40;;;;;;5085740;28;20048;-42
2022/04/27 01:21:12;;;;;;;4.15;3.00;;;7.30;99.50;;;;;;5097573;28;20044;-41
2022/04/27 01:23:39;;;;;;;5.20;3.13;;;7.30;99.60;;;;;;5085021;28;20044;-40
2022/04/27 01:26:08;;;;;;;6.07;3.53;;;7.30;99.70;;;;;;5097597;28;20117;-41
2022/04/27 01:28:36;;;;;;;6.93;3.20;;;7.20;99.70;;;;;;5085155;28;20020;-38
2022/04/27 01:31:08;;;;;;;4.57;3.42;;;7.20;99.70;;;;;;5101240;28;20301;-41
2022/04/27 01:33:34;;;;;;;6.60;3.50;;;7.10;99.70;;;;;;5097453;28;20031;-39
2022/04/27 01:36:04;;;;;;;5.85;3.53;;;7.10;99.70;;;;;;5098274;28;20020;-42
2022/04/27 01:38:37;;;;;;;5.32;3.30;;;7.00;99.60;;;;;;5107072;28;20016;-40
2022/04/27 01:41:03;;;;;;;5.38;3.80;;;7.00;99.70;;;;;;5098831;28;20016;-42
2022/04/27 01:43:29;;;;;;;5.82;3.88;;;6.90;99.80;;;;;;5105297;28;20032;-40
2022/04/27 01:45:55;;;;;;;3.90;3.60;;;6.90;99.80;;;;;;5101239;28;20467;-40
2022/04/27 01:48:21;;;;;;;4.05;3.50;;;6.80;99.80;;;;;;5103909;28;20106;-40
2022/04/27 01:50:47;;;;;;;5.13;3.47;;;6.80;99.80;;;;;;5102630;28;20536;-40
2022/04/27 01:55:57;;;;;;;6.80;3.42;;;6.70;99.90;;;;;;5104182;28;20038;-41
2022/04/27 01:58:22;;;;;;;8.30;4.07;;;6.60;99.90;;;;;;5100107;28;20502;-41
2022/04/27 02:00:48;;;;;;;6.97;3.97;;;6.60;99.90;;;;;;5106126;28;20103;-41
2022/04/27 02:03:18;;;;;;;5.10;3.30;;;6.50;99.90;;;;;;5098354;28;20459;-39
2022/04/27 02:05:47;;;;;;;8.25;3.95;;;6.50;99.90;;;;;;5106471;28;20803;-40
2022/04/27 02:08:13;;;;;;;5.78;3.50;;;6.40;99.90;;;;;;5096852;28;20042;-41
2022/04/27 02:10:38;;;;;;;4.53;3.67;;;6.40;99.90;;;;;;5106893;28;20024;-37
2022/04/27 02:13:06;;;;;;;9.00;3.70;;;6.40;99.90;;;;;;5096797;28;20486;-40
2022/04/27 02:15:32;;;;;;;4.07;3.65;;;6.40;99.90;;;;;;5107946;28;20518;-40
2022/04/27 02:17:57;;;;;;;4.50;3.95;;;6.40;99.90;;;;;;5095504;28;20126;-40
2022/04/27 02:20:23;;;;;;;6.32;3.53;;;6.30;99.90;;;;;;5108134;28;20019;-43
2022/04/27 02:22:50;;;;;;;5.28;3.92;;;6.30;99.90;;;;;;5095367;28;20028;-40
2022/04/27 02:25:17;;;;;;;4.40;3.47;;;6.30;99.90;;;;;;5108284;28;20028;-42
2022/04/27 02:27:43;;;;;;;5.03;4.07;;;6.30;99.90;;;;;;5096505;28;20102;-41
2022/04/27 02:30:12;;;;;;;6.25;3.88;;;6.30;99.90;;;;;;5106341;28;20134;-41
2022/04/27 02:32:39;;;;;;;7.28;3.90;;;6.20;99.90;;;;;;5099300;28;20028;-40
2022/04/27 02:35:06;;;;;;;5.10;3.83;;;6.20;99.90;;;;;;5088132;28;20030;-41
2022/04/27 02:37:32;;;;;;;5.57;3.90;;;6.20;99.90;;;;;;5093450;28;20024;-42
2022/04/27 02:39:58;;;;;;;5.57;3.83;;;6.20;99.90;;;;;;5092283;28;20032;-40
2022/04/27 02:42:24;;;;;;;6.55;4.63;;;6.20;99.90;;;;;;5091189;28;20103;-40
2022/04/27 02:44:49;;;;;;;7.03;4.18;;;6.20;99.90;;;;;;5096231;28;20098;-41
2022/04/27 02:47:15;;;;;;;6.40;4.00;;;6.10;99.90;;;;;;5088170;28;20444;-41
2022/04/27 02:52:25;;;;;;;5.28;4.35;;;6.10;99.90;;;;;;5088445;28;20039;-41
2022/04/27 02:54:50;;;;;;;5.45;4.40;;;6.10;99.90;;;;;;5097997;28;20032;-41
2022/04/27 02:57:16;;;;;;;5.85;4.07;;;6.10;99.90;;;;;;5088206;28;20060;-42
2022/04/27 02:59:43;;;;;;;6.53;4.32;;;6.00;99.90;;;;;;5098799;28;20026;-43
2022/04/27 03:02:08;;;;;;;8.35;4.88;;;6.00;99.90;;;;;;5086903;28;20590;-40
2022/04/27 03:04:34;;;;;;;6.78;4.22;;;6.00;99.90;;;;;;5099566;28;20020;-39
2022/04/27 03:07:00;;;;;;;5.70;4.20;;;6.00;99.90;;;;;;5087030;28;20043;-41
2022/04/27 03:09:26;;;;;;;6.45;4.80;;;6.00;99.90;;;;;;5098648;28;20027;-42
2022/04/27 03:11:52;;;;;;;8.25;4.55;;;6.00;99.90;;;;;;5087393;28;20067;-40
2022/04/27 03:14:19;;;;;;;6.05;4.40;;;6.00;99.90;;;;;;5097814;28;20027;-40
2022/04/27 03:16:45;;;;;;;7.22;4.55;;;6.00;99.90;;;;;;5087416;28;20028;-41
2022/04/27 03:19:11;;;;;;;5.32;4.20;;;6.00;99.90;;;;;;5094859;28;20471;-43
2022/04/27 03:21:37;;;;;;;5.00;4.57;;;5.90;99.90;;;;;;5090366;28;20024;-42
2022/04/27 03:24:02;;;;;;;5.82;4.75;;;5.90;99.90;;;;;;5092370;28;20471;-41
2022/04/27 03:26:28;;;;;;;8.25;4.60;;;5.90;99.90;;;;;;5092649;28;20110;-40
2022/04/27 03:28:53;;;;;;;8.95;4.85;;;5.90;99.90;;;;;;5089989;28;20031;-40
2022/04/27 03:31:19;;;;;;;7.28;4.35;;;5.90;99.90;;;;;;5095447;28;20673;-42
2022/04/27 03:33:45;;;;;;;6.13;3.80;;;5.80;99.90;;;;;;5088790;28;20023;-41
2022/04/27 03:36:11;;;;;;;6.38;4.03;;;5.80;99.90;;;;;;5097336;28;20589;-40
2022/04/27 03:38:38;;;;;;;6.15;3.70;;;5.70;99.90;;;;;;5087811;28;20039;-41
2022/04/27 03:41:04;;;;;;;6.75;4.15;;;5.70;99.90;;;;;;5098177;28;20020;-40
2022/04/27 03:43:30;;;;;;;8.23;5.35;;;5.70;99.90;;;;;;5085370;28;20031;-41
2022/04/27 03:45:55;;;;;;;5.53;4.35;;;5.70;99.90;;;;;;5099087;28;20097;-41
2022/04/27 03:48:21;;;;;;;6.60;4.40;;;5.60;99.90;;;;;;5085975;28;20703;-39
2022/04/27 03:50:46;;;;;;;8.52;4.65;;;5.60;99.90;;;;;;5098257;28;20110;-42
2022/04/27 03:53:12;;;;;;;6.90;4.47;;;5.60;99.90;;;;;;5086254;28;20287;-37
2022/04/27 03:55:37;;;;;;;5.40;4.10;;;5.60;99.90;;;;;;5096136;28;20041;-41
2022/04/27 03:58:03;;;;;;;5.88;4.50;;;5.60;99.90;;;;;;5087985;28;20586;-41
2022/04/27 04:00:29;;;;;;;6.03;4.22;;;5.50;99.90;;;;;;5093578;28;20035;-41
2022/04/27 04:02:54;;;;;;;6.28;4.32;;;5.50;99.90;;;;;;5090634;28;20043;-41
2022/04/27 04:05:23;;;;;;;7.30;4.03;;;5.50;99.90;;;;;;5090628;28;20069;-40
2022/04/27 04:07:48;;;;;;;6.22;4.38;;;5.40;99.90;;;;;;5092577;28;20075;-40
2022/04/27 04:10:14;;;;;;;7.95;4.78;;;5.40;99.90;;;;;;5088459;28;20127;-40
2022/04/27 04:12:39;;;;;;;5.93;4.40;;;5.40;99.90;;;;;;5095236;28;20143;-42
2022/04/27 04:15:05;;;;;;;5.25;4.30;;;5.40;99.90;;;;;;5087455;28;20379;-41
2022/04/27 04:17:31;;;;;;;6.40;5.18;;;5.40;99.90;;;;;;5096557;28;20024;-41
2022/04/27 04:19:56;;;;;;;5.65;4.43;;;5.40;99.90;;;;;;5086499;28;20020;-40
2022/04/27 04:22:22;;;;;;;5.07;4.55;;;5.30;99.90;;;;;;5096938;28;20513;-41
2022/04/27 04:30:15;;;;;;;5.82;4.75;;;5.30;99.90;;;;;;5087217;28;20105;-41
2022/04/27 04:32:41;;;;;;;7.85;4.78;;;5.30;99.90;;;;;;5096026;28;20036;-41
2022/04/27 04:35:08;;;;;;;5.30;4.60;;;5.30;99.90;;;;;;5105625;28;20057;-40
2022/04/27 04:37:33;;;;;;;8.68;5.00;;;5.30;99.90;;;;;;5092312;28;20043;-42
2022/04/27 04:39:59;;;;;;;8.80;5.50;;;5.30;99.90;;;;;;5105503;28;20028;-38
2022/04/27 04:42:24;;;;;;;6.65;4.72;;;5.30;99.90;;;;;;5093405;28;20471;-40
2022/04/27 04:44:50;;;;;;;8.00;4.90;;;5.30;99.90;;;;;;5106101;28;20016;-40
2022/04/27 04:47:16;;;;;;;7.97;5.10;;;5.30;99.90;;;;;;5094711;28;20799;-42
2022/04/27 04:49:42;;;;;;;7.32;5.38;;;5.30;99.90;;;;;;5103127;28;20043;-41
2022/04/27 04:52:07;;;;;;;9.30;4.95;;;5.30;99.90;;;;;;5098313;28;20111;-40
2022/04/27 04:54:34;;;;;;;6.95;5.30;;;5.30;99.90;;;;;;5099130;28;20023;-40
2022/04/27 04:56:59;;;;;;;7.05;4.78;;;5.30;99.90;;;;;;5100413;28;20048;-40
2022/04/27 04:59:25;;;;;;;6.90;5.28;;;5.30;99.90;;;;;;5097088;28;20783;-40
2022/04/27 05:01:50;;;;;;;6.45;5.28;;;5.30;99.90;;;;;;5103126;28;20024;-38
2022/04/27 05:04:16;;;;;;;7.10;5.65;;;5.30;99.90;;;;;;5097164;28;20054;-40
2022/04/27 05:06:43;;;;;;;6.32;4.72;;;5.30;99.90;;;;;;5107925;28;20106;-41
2022/04/27 05:09:08;;;;;;;5.43;4.75;;;5.40;99.90;;;;;;5097454;28;20023;-41
2022/04/27 05:11:34;;;;;;;5.63;5.03;;;5.40;99.90;;;;;;5108233;28;20439;-40
2022/04/27 05:13:59;;;;;;;6.50;5.43;;;5.40;99.90;;;;;;5097616;28;20072;-41
2022/04/27 05:16:25;;;;;;;5.72;5.05;;;5.40;99.90;;;;;;5108831;28;20046;-39
2022/04/27 05:18:51;;;;;;;5.93;5.32;;;5.40;99.90;;;;;;5096695;28;20047;-42
2022/04/27 05:21:16;;;;;;;6.85;4.88;;;5.40;99.90;;;;;;5109192;28;20042;-42
2022/04/27 05:23:42;;;;;;;6.32;5.32;;;5.50;99.90;;;;;;5097077;28;20363;-41
2022/04/27 05:26:08;;;;;;;6.63;4.82;;;5.50;99.90;;;;;;5108478;28;20036;-41
2022/04/27 05:31:53;;;;;;;6.25;4.95;;;5.60;99.90;;;;;;5098755;28;20120;-41
2022/04/27 05:34:03;;;;;;;7.00;4.65;;;5.70;99.90;;;;;;5107950;28;20046;-40
2022/04/27 05:36:29;;;;;;;7.45;5.28;;;5.80;99.90;;;;;;5108295;28;20532;-41
2022/04/27 05:38:54;;;;;;;5.55;4.78;;;5.80;99.90;;;;;;5101850;28;20024;-40
2022/04/27 05:41:21;;;;;;;5.97;4.70;;;5.90;99.90;;;;;;5092258;28;20070;-41
2022/04/27 05:43:47;;;;;;;7.80;6.03;;;6.00;99.90;;;;;;5094113;28;20020;-41
2022/04/27 05:46:15;;;;;;;8.50;5.90;;;6.00;99.90;;;;;;5094866;28;20035;-42
2022/04/27 05:48:41;;;;;;;7.53;5.53;;;6.00;99.90;;;;;;5092343;28;20034;-40
2022/04/27 05:51:06;;;;;;;6.32;5.05;;;6.00;99.90;;;;;;5096197;28;20039;-41
2022/04/27 05:53:32;;;;;;;7.68;5.25;;;6.10;99.90;;;;;;5089787;28;20028;-40
2022/04/27 05:55:57;;;;;;;6.47;5.68;;;6.10;99.90;;;;;;5099307;28;20021;-41
2022/04/27 05:58:23;;;;;;;7.00;5.22;;;6.10;99.90;;;;;;5087373;28;20445;-41
2022/04/27 06:00:50;;;;;;;8.00;5.68;;;6.10;99.90;;;;;;5098539;28;20059;-38
2022/04/27 06:03:15;;;;;;;7.28;5.88;;;6.10;99.90;;;;;;5086887;28;20519;-40
2022/04/27 06:05:41;;;;;;;6.93;5.72;;;6.20;99.90;;;;;;5098353;28;20044;-40
2022/04/27 06:08:07;;;;;;;8.02;5.93;;;6.20;99.90;;;;;;5086955;28;20043;-41
2022/04/27 06:10:32;;;;;;;8.25;6.57;;;6.20;99.90;;;;;;5099536;28;20031;-39
2022/04/27 06:12:58;;;;;;;7.95;5.88;;;6.20;99.90;;;;;;5086202;28;20440;-40
2022/04/27 06:15:26;;;;;;;6.53;5.70;;;6.30;99.90;;;;;;5097760;28;20058;-39
2022/04/27 06:17:52;;;;;;;7.35;5.60;;;6.30;99.90;;;;;;5087464;28;20089;-36
2022/04/27 06:20:17;;;;;;;7.82;5.50;;;6.30;99.90;;;;;;5095380;28;20135;-41
2022/04/27 06:22:43;;;;;;;6.10;4.88;;;6.40;99.90;;;;;;5090567;28;20036;-40
2022/04/27 06:25:09;;;;;;;7.50;5.15;;;6.40;99.90;;;;;;5092522;28;20547;-36
2022/04/27 06:27:34;;;;;;;5.72;4.50;;;6.50;99.90;;;;;;5092431;28;20770;-39
2022/04/27 06:30:01;;;;;;;5.70;5.10;;;6.60;99.90;;;;;;5090690;28;20016;-40
2022/04/27 06:32:29;;;;;;;5.22;4.47;;;6.60;99.90;;;;;;5094272;28;20730;-39
2022/04/27 06:34:55;;;;;;;5.90;4.80;;;6.70;99.90;;;;;;5101603;28;20019;-40
2022/04/27 06:37:20;;;;;;;5.25;4.40;;;6.80;99.90;;;;;;5096115;28;20031;-41
2022/04/27 06:39:46;;;;;;;5.95;4.63;;;6.80;99.90;;;;;;5105079;28;20040;-40
2022/04/27 06:42:11;;;;;;;7.45;4.75;;;6.90;99.90;;;;;;5096314;28;20019;-42
2022/04/27 06:44:39;;;;;;;7.28;4.63;;;7.00;99.90;;;;;;5105740;28;20798;-40
2022/04/27 06:47:05;;;;;;;7.55;4.80;;;7.00;99.90;;;;;;5092488;28;20074;-41
2022/04/27 06:49:31;;;;;;;6.88;4.78;;;7.10;99.90;;;;;;5106959;28;20063;-42
2022/04/27 06:51:59;;;;;;;5.22;4.25;;;7.20;99.90;;;;;;5093835;28;20026;-41
2022/04/27 06:54:25;;;;;;;5.88;4.82;;;7.20;99.90;;;;;;5105858;28;20030;-40
2022/04/27 06:56:50;;;;;;;6.55;4.90;;;7.30;99.90;;;;;;5087543;28;81621;-40
2022/04/27 06:59:16;;;;;;;7.43;4.60;;;7.30;99.90;;;;;;5092608;28;20035;-40
2022/04/27 07:01:41;;;;;;;7.10;5.38;;;7.40;99.90;;;;;;5097275;28;20032;-42
2022/04/27 07:04:09;;;;;;;7.20;4.63;;;7.40;99.90;;;;;;5104843;28;20023;-41
2022/04/27 07:06:35;;;;;;;6.00;4.65;;;7.50;99.90;;;;;;5099787;28;20634;-39
2022/04/27 07:09:01;;;;;;;8.70;4.97;;;7.60;99.90;;;;;;5101192;28;20111;-40
2022/04/27 07:11:27;;;;;;;7.72;5.22;;;7.60;99.90;;;;;;5102404;28;20040;-42
2022/04/27 07:13:54;;;;;;;7.53;4.50;;;7.70;99.90;;;;;;5098934;28;20031;-40
2022/04/27 07:16:20;;;;;;;6.07;4.82;;;7.80;99.90;;;;;;5104213;28;20027;-42
2022/04/27 07:18:45;;;;;;;9.23;5.13;;;7.90;99.90;;;;;;5096573;28;20034;-41
2022/04/27 07:21:11;;;;;;;7.70;4.07;;;7.90;99.90;;;;;;5105002;28;20631;-41
2022/04/27 07:23:36;;;;;;;5.50;4.80;;;8.00;99.90;;;;;;5095406;28;20027;-40
2022/04/27 07:26:02;;;;;;;5.38;4.35;;;8.10;99.90;;;;;;5106319;28;20032;-41
2022/04/27 07:28:28;;;;;;;5.18;4.35;;;8.20;99.90;;;;;;5093450;28;20110;-41
2022/04/27 07:30:53;;;;;;;5.63;4.20;;;8.30;99.90;;;;;;5107704;28;20031;-41
2022/04/27 07:33:21;;;;;;;5.85;4.00;;;8.30;99.90;;;;;;5093039;28;20031;-40
2022/04/27 07:35:47;;;;;;;5.50;4.10;;;8.40;99.90;;;;;;5085635;28;20020;-41
2022/04/27 07:38:13;;;;;;;4.47;3.83;;;8.50;99.90;;;;;;5097921;28;20019;-40
2022/04/27 07:40:38;;;;;;;6.10;4.30;;;8.50;99.90;;;;;;5086824;28;20021;-43
2022/04/27 07:43:04;;;;;;;6.72;3.40;;;8.60;99.90;;;;;;5094583;28;20063;-41
2022/04/27 07:45:29;;;;;;;5.13;3.38;;;8.70;99.90;;;;;;5089016;28;20016;-40
2022/04/27 07:47:55;;;;;;;3.70;3.05;;;8.70;99.90;;;;;;5092443;28;20088;-39
2022/04/27 07:50:20;;;;;;;4.82;3.75;;;8.80;99.90;;;;;;5092271;28;20546;-39
2022/04/27 07:52:46;;;;;;;5.85;3.33;;;8.90;99.90;;;;;;5089526;28;20039;-40
2022/04/27 07:55:12;;;;;;;5.07;2.92;;;9.00;99.90;;;;;;5095230;28;20056;-40
2022/04/27 07:57:39;;;;;;;5.28;3.25;;;9.10;99.90;;;;;;5086581;28;20047;-42
2022/04/27 08:00:11;;;;;;;6.43;2.60;;;9.10;99.90;;;;;;5083729;28;20352;-43
2022/04/27 08:02:37;;;;;;;2.80;2.35;;;9.20;99.90;;;;;;5104478;28;20455;-42
2022/04/27 08:05:04;;;;;;;5.25;2.97;;;9.30;99.90;;;;;;5094558;28;20031;-41
2022/04/27 08:07:37;;;;;;;3.85;2.95;;;9.40;99.90;;;;;;5105142;28;20128;-40
2022/04/27 08:10:16;;;;;;;4.53;3.20;;;9.50;99.90;;;;;;5094335;28;20091;-41
2022/04/27 08:12:46;;;;;;;3.28;2.60;;;9.60;99.90;;;;;;5087277;28;20070;-41
2022/04/27 08:15:13;;;;;;;4.15;2.65;;;9.70;99.90;;;;;;5094902;28;20028;-40
2022/04/27 08:17:59;;;;;;;4.57;2.58;;;9.90;99.90;;;;;;5084746;28;20040;-42
2022/04/27 08:23:20;;;;;;;3.25;1.67;;;10.20;99.90;;;;;;5086926;28;20444;-42
2022/04/27 08:25:49;;;;;;;3.75;2.17;;;10.40;99.90;;;;;;5096213;28;20024;-40
2022/04/27 08:28:17;;;;;;;2.80;2.40;;;10.50;99.90;;;;;;5087006;28;20048;-41
2022/04/27 08:30:45;;;;;;;3.83;2.30;;;10.80;99.90;;;;;;5096968;28;20099;-38
2022/04/27 08:33:12;;;;;;;6.10;2.90;;;11.00;99.90;;;;;;5085914;28;20024;-41
2022/04/27 08:35:38;;;;;;;4.57;2.78;;;11.20;99.90;;;;;;5092850;28;20028;-41
2022/04/27 08:38:05;;;;;;;3.42;2.47;;;11.30;99.90;;;;;;5105702;28;20023;-43
2022/04/27 08:40:33;;;;;;;4.53;3.08;;;11.40;99.90;;;;;;5091878;28;20040;-41
2022/04/27 08:43:01;;;;;;;4.97;3.03;;;11.60;99.90;;;;;;5106182;28;20039;-42
2022/04/27 08:45:28;;;;;;;3.67;2.45;;;11.70;99.90;;;;;;5092502;28;20020;-39
2022/04/27 08:47:53;;;;;;;4.28;2.20;;;11.80;99.80;;;;;;5104663;28;20036;-41
2022/04/27 08:50:21;;;;;;;4.63;3.05;;;11.90;99.70;;;;;;5096524;28;20023;-40
2022/04/27 08:52:51;;;;;;;3.95;2.45;;;11.90;99.20;;;;;;5101782;28;20092;-41
2022/04/27 08:55:17;;;;;;;4.03;2.90;;;11.90;99.10;;;;;;5097724;28;20086;-40
2022/04/27 08:57:44;;;;;;;3.30;2.42;;;11.80;99.00;;;;;;5100467;28;20055;-36
2022/04/27 09:00:12;;;;;;;5.68;2.30;;;11.80;98.90;;;;;;5099412;28;20016;-42
2022/04/27 09:02:38;;;;;;;5.00;2.72;;;11.80;98.90;;;;;;5098096;28;20499;-42
2022/04/27 09:05:08;;;;;;;4.47;2.40;;;11.80;98.80;;;;;;5103204;28;20027;-43
2022/04/27 09:07:38;;;;;;;3.50;1.80;;;11.80;98.80;;;;;;5095141;28;20035;-41
2022/04/27 09:10:06;;;;;;;3.97;2.00;;;11.90;98.70;;;;;;5104213;28;20032;-40
2022/04/27 09:12:31;;;;;;;5.45;2.75;;;12.00;98.60;;;;;;5082849;28;20039;-42
2022/04/27 09:15:06;;;;;;;3.25;2.38;;;12.10;98.30;;;;;;5103728;28;20020;-42
2022/04/27 09:23:02;;;;;;;4.20;2.25;;;12.50;97.70;;;;;;5079461;28;20054;-42
2022/04/27 09:25:36;;;;;;;2.65;1.98;;;12.70;97.40;;;;;;5085632;28;20055;-40
2022/04/27 09:28:03;;;;;;;3.33;2.10;;;12.90;97.30;;;;;;5082444;28;20509;-38
2022/04/27 09:30:31;;;;;;;4.45;2.60;;;13.10;97.20;;;;;;5103591;28;20035;-41
2022/04/27 09:32:57;;;;;;;4.40;2.20;;;13.20;96.50;;;;;;5094118;28;20115;-40
2022/04/27 09:35:34;;;;;;;4.68;2.05;;;13.30;96.40;;;;;;5087095;28;20139;-43
2022/04/27 09:38:17;;;;;;;3.70;2.10;;;13.40;96.30;;;;;;5094303;28;20414;-41
2022/04/27 09:40:48;;;;;;;3.22;2.17;;;13.60;96.20;;;;;;5082978;28;20059;-41
2022/04/27 09:43:15;;;;;;;2.58;1.90;;;13.60;96.00;;;;;;5094543;28;20103;-41
2022/04/27 09:45:44;;;;;;;2.30;1.60;;;13.70;95.90;;;;;;5083603;28;20039;-41
2022/04/27 09:48:19;;;;;;;2.90;1.85;;;13.80;95.90;;;;;;5091675;28;20093;-40
2022/04/27 09:50:47;;;;;;;4.25;2.35;;;13.90;95.70;;;;;;5105913;28;20162;-41
2022/04/27 09:53:15;;;;;;;3.35;2.42;;;14.00;95.20;;;;;;5095383;28;20074;-41
2022/04/27 09:55:46;;;;;;;5.10;2.10;;;13.90;95.00;;;;;;5108025;28;20020;-42
2022/04/27 09:58:13;;;;;;;3.80;2.40;;;13.90;94.80;;;;;;5095205;28;20075;-41
2022/04/27 10:00:42;;;;;;;2.90;1.85;;;13.80;94.80;;;;;;5107359;28;20034;-40
2022/04/27 10:03:13;;;;;;;2.80;2.10;;;13.80;94.90;;;;;;5094673;28;20023;-42
2022/04/27 10:05:39;;;;;;;5.13;2.42;;;13.70;94.70;;;;;;5067365;28;20028;-42
2022/04/27 10:08:05;;;;;;;4.18;2.00;;;13.70;94.80;;;;;;5092254;28;20085;-42
2022/04/27 10:10:31;;;;;;;3.78;2.42;;;13.70;94.80;;;;;;5088246;28;20034;-41
2022/04/27 10:12:58;;;;;;;5.18;2.75;;;13.70;94.50;;;;;;5095290;28;20111;-40
2022/04/27 10:15:24;;;;;;;3.10;2.28;;;13.60;94.20;;;;;;5091811;28;20170;-40
2022/04/27 10:17:50;;;;;;;3.03;2.00;;;13.50;94.10;;;;;;5092688;28;20024;-41
2022/04/27 10:20:34;;;;;;;3.00;1.98;;;13.40;94.30;;;;;;5093706;28;20037;-41
2022/04/27 10:23:15;;;;;;;2.53;2.08;;;13.50;94.30;;;;;;5093192;28;20011;-41
2022/04/27 10:25:41;;;;;;;3.17;2.05;;;13.60;94.00;;;;;;5090401;28;20032;-40
2022/04/27 10:28:20;;;;;;;4.18;2.22;;;13.70;93.80;;;;;;5092275;28;20036;-39
2022/04/27 10:30:46;;;;;;;3.10;1.90;;;13.90;93.80;;;;;;5091948;28;20094;-41
2022/04/27 10:33:34;;;;;;;2.17;1.80;;;14.00;93.70;;;;;;5090469;28;20059;-41
2022/04/27 10:36:35;;;;;;;4.18;2.03;;;14.10;93.40;;;;;;5066440;28;20474;-42
2022/04/27 10:39:13;;;;;;;2.55;1.98;;;14.20;93.10;;;;;;5089820;28;20031;-41
2022/04/27 10:41:39;;;;;;;3.58;2.10;;;14.40;93.10;;;;;;5088182;28;20111;-42
2022/04/27 10:44:05;;;;;;;4.32;2.35;;;14.50;92.80;;;;;;5095907;28;20016;-41
2022/04/27 10:46:38;;;;;;;2.92;1.92;;;14.60;92.60;;;;;;5088866;28;20090;-42
2022/04/27 10:49:28;;;;;;;3.15;1.85;;;14.80;92.70;;;;;;5094110;28;20564;-41
2022/04/27 10:52:10;;;;;;;3.55;2.08;;;14.90;92.60;;;;;;5089177;28;20020;-40
2022/04/27 10:54:37;;;;;;;3.90;1.90;;;15.10;92.30;;;;;;5096786;28;20458;-42
2022/04/27 10:57:15;;;;;;;3.80;2.10;;;15.20;92.20;;;;;;5088698;28;20048;-40
2022/04/27 10:59:43;;;;;;;4.05;2.28;;;15.20;91.50;;;;;;5094256;28;20151;-42
2022/04/27 11:02:35;;;;;;;2.55;1.70;;;15.30;91.60;;;;;;5088117;28;20551;-42
2022/04/27 11:05:03;;;;;;;2.70;1.50;;;15.30;91.60;;;;;;5097100;28;20023;-40
2022/04/27 11:07:56;;;;;;;2.38;1.33;;;15.40;91.70;;;;;;5086732;28;20733;-41
2022/04/27 11:10:22;;;;;;;1.90;1.45;;;15.50;91.80;;;;;;5098699;28;20035;-43
2022/04/27 11:12:50;;;;;;;3.08;2.13;;;15.50;91.30;;;;;;5085127;28;20127;-40
2022/04/27 11:15:21;;;;;;;4.38;2.00;;;15.50;90.90;;;;;;5094797;28;20514;-42
2022/04/27 11:18:01;;;;;;;6.00;2.42;;;15.50;90.80;;;;;;5088101;28;20516;-42
2022/04/27 11:20:34;;;;;;;1.90;1.50;;;15.40;90.90;;;;;;5095156;28;20055;-38
2022/04/27 11:23:03;;;;;;;2.40;1.90;;;15.40;90.90;;;;;;5088136;28;20033;-39
2022/04/27 11:25:33;;;;;;;3.78;1.70;;;15.40;90.70;;;;;;5094066;28;20020;-41
2022/04/27 11:28:00;;;;;;;2.13;1.77;;;15.30;90.50;;;;;;5088451;28;20036;-42
2022/04/27 11:30:28;;;;;;;4.32;2.20;;;15.30;90.50;;;;;;5092204;28;20049;-42
2022/04/27 11:32:54;;;;;;;4.43;2.03;;;15.20;90.70;;;;;;5091540;28;20046;-41
2022/04/27 11:35:23;;;;;;;2.28;1.85;;;15.10;90.50;;;;;;5089722;28;20467;-43
2022/04/27 11:37:58;;;;;;;3.35;2.00;;;15.00;90.60;;;;;;5093141;28;20596;-44
2022/04/27 11:40:27;;;;;;;2.63;1.77;;;14.80;90.70;;;;;;5089221;28;20038;-38
2022/04/27 11:42:53;;;;;;;3.90;2.75;;;14.70;90.70;;;;;;5093423;28;20536;-41
2022/04/27 11:45:21;;;;;;;3.15;2.40;;;14.50;90.00;;;;;;5088192;28;20020;-42
2022/04/27 11:48:01;;;;;;;3.65;2.28;;;14.40;90.00;;;;;;5096707;28;20047;-39
2022/04/27 11:50:31;;;;;;;2.70;2.08;;;14.20;90.10;;;;;;5086248;28;20048;-39
2022/04/27 11:53:06;;;;;;;3.78;2.58;;;14.20;90.20;;;;;;5096818;28;20077;-38
2022/04/27 11:55:33;;;;;;;3.10;2.03;;;14.10;90.20;;;;;;5086314;28;20020;-40
2022/04/27 11:58:00;;;;;;;4.10;2.10;;;14.10;89.70;;;;;;5094160;28;20047;-41
2022/04/27 12:00:28;;;;;;;2.10;1.90;;;14.10;89.70;;;;;;5085731;28;20020;-35
2022/04/27 12:03:03;;;;;;;3.80;1.90;;;14.10;89.50;;;;;;5095831;28;20067;-41
2022/04/27 12:05:30;;;;;;;3.55;2.03;;;14.00;89.50;;;;;;5086021;28;20116;-41
2022/04/27 12:07:56;;;;;;;2.35;1.67;;;14.00;89.90;;;;;;5092407;28;20058;-39
2022/04/27 12:10:22;;;;;;;3.25;1.80;;;14.00;90.00;;;;;;5085657;28;20062;-42
2022/04/27 12:12:48;;;;;;;2.80;1.70;;;14.10;90.00;;;;;;5098165;28;20467;-40
2022/04/27 12:15:14;;;;;;;2.92;1.73;;;14.10;90.00;;;;;;5086049;28;20028;-42
2022/04/27 12:17:53;;;;;;;2.55;1.50;;;14.20;90.00;;;;;;5097782;28;20024;-41
2022/04/27 12:20:26;;;;;;;2.50;1.50;;;14.20;90.10;;;;;;5085606;28;20515;-42
2022/04/27 12:23:00;;;;;;;1.98;1.60;;;14.40;90.10;;;;;;5089546;28;20584;-40
2022/04/27 12:25:52;;;;;;;4.28;2.33;;;14.50;90.10;;;;;;5105866;28;20024;-42
2022/04/27 12:28:19;;;;;;;2.58;1.63;;;14.70;90.10;;;;;;5093200;28;20069;-42
2022/04/27 12:30:48;;;;;;;2.47;1.77;;;14.90;89.60;;;;;;5105544;28;20055;-41
2022/04/27 12:33:15;;;;;;;4.60;2.35;;;15.10;89.40;;;;;;5093216;28;20034;-39
2022/04/27 12:38:30;;;;;;;3.97;1.98;;;15.20;88.10;;;;;;5096151;28;20570;-39
2022/04/27 12:40:58;;;;;;;3.30;1.90;;;15.20;87.70;;;;;;5084763;28;20036;-39
2022/04/27 12:43:24;;;;;;;2.22;1.90;;;15.10;87.50;;;;;;5095989;28;20023;-41
2022/04/27 12:46:04;;;;;;;2.03;1.58;;;15.10;87.80;;;;;;5085391;28;20016;-40
2022/04/27 12:48:31;;;;;;;3.17;2.28;;;15.20;88.00;;;;;;5093577;28;20138;-40
2022/04/27 12:50:58;;;;;;;3.42;2.30;;;15.20;87.30;;;;;;5102163;28;20024;-42
2022/04/27 12:53:24;;;;;;;4.15;2.38;;;15.20;87.30;;;;;;5093990;28;20051;-41
2022/04/27 12:56:07;;;;;;;3.67;2.17;;;15.20;87.20;;;;;;5100705;28;20023;-42
2022/04/27 12:58:33;;;;;;;3.33;2.20;;;15.20;87.10;;;;;;5093878;28;20048;-41
2022/04/27 13:00:59;;;;;;;3.20;2.20;;;15.30;86.70;;;;;;5098975;28;20024;-41
2022/04/27 13:03:26;;;;;;;3.35;2.42;;;15.40;86.80;;;;;;5095106;28;20024;-41
2022/04/27 13:05:52;;;;;;;6.03;2.60;;;15.50;85.90;;;;;;5097268;28;20039;-38
2022/04/27 13:08:18;;;;;;;4.30;2.17;;;15.50;85.80;;;;;;5100399;28;20032;-42
2022/04/27 13:13:39;;;;;;;3.25;2.17;;;15.60;85.50;;;;;;5025239;28;20030;-40
2022/04/27 13:16:05;;;;;;;3.17;2.00;;;15.50;85.20;;;;;;5097369;28;20016;-41
2022/04/27 13:18:31;;;;;;;2.33;2.13;;;15.50;85.50;;;;;;5102965;28;20045;-41
2022/04/27 13:20:57;;;;;;;3.35;1.98;;;15.60;85.70;;;;;;5094805;28;20122;-43
2022/04/27 13:23:22;;;;;;;5.00;1.88;;;15.70;85.70;;;;;;5103938;28;20387;-42